Time;durP1;ratioP1;P1;durP2;ratioP2;P2;SDS_P1;SDS_P2;PMS_P1;PMS_P2;Temp;Humidity;BMP_temperature;BMP_pressure;BME280_temperature;BME280_humidity;BME280_pressure;Samples;Min_cycle;Max_cycle;Signal;HPM_P1;HPM_P2
2022/06/09 00:01:49;;;;;;;8.77;1.80;;;16.20;99.90;;;;;;5011962;28;20041;-61
2022/06/09 00:04:25;;;;;;;10.57;1.08;;;16.20;99.90;;;;;;5012974;28;20108;-61
2022/06/09 00:06:59;;;;;;;4.30;1.10;;;16.20;99.90;;;;;;5013200;28;20036;-61
2022/06/09 00:09:29;;;;;;;7.93;0.93;;;16.10;99.90;;;;;;5013185;28;20026;-61
2022/06/09 00:11:55;;;;;;;8.53;1.00;;;16.10;99.90;;;;;;5028261;28;20026;-59
2022/06/09 00:14:21;;;;;;;5.40;1.08;;;16.10;99.90;;;;;;5013279;28;20040;-61
2022/06/09 00:16:47;;;;;;;4.82;1.10;;;16.10;99.90;;;;;;5012841;28;20033;-61
2022/06/09 00:19:14;;;;;;;7.15;0.80;;;16.10;99.90;;;;;;5012874;28;20022;-61
2022/06/09 00:21:39;;;;;;;12.43;1.20;;;16.00;99.90;;;;;;5012879;28;20022;-61
2022/06/09 00:24:06;;;;;;;4.00;0.95;;;16.10;99.90;;;;;;5011813;28;20033;-61
2022/06/09 00:26:31;;;;;;;6.78;1.00;;;16.00;99.90;;;;;;5012931;28;20025;-61
2022/06/09 00:28:57;;;;;;;1.88;0.73;;;16.00;99.90;;;;;;5013569;28;20036;-60
2022/06/09 00:31:24;;;;;;;5.60;1.13;;;16.00;99.90;;;;;;5012904;28;20029;-60
2022/06/09 00:33:49;;;;;;;2.75;1.00;;;15.90;99.90;;;;;;5011874;28;20026;-61
2022/06/09 00:36:15;;;;;;;5.55;1.17;;;16.00;99.90;;;;;;5011601;28;20092;-61
2022/06/09 00:38:41;;;;;;;5.70;1.00;;;15.90;99.90;;;;;;5022328;28;20092;-60
2022/06/09 00:41:07;;;;;;;3.55;0.90;;;15.90;99.90;;;;;;5035090;28;20029;-61
2022/06/09 00:43:33;;;;;;;2.10;0.90;;;15.80;99.90;;;;;;5036414;28;20132;-61
2022/06/09 00:46:10;;;;;;;7.00;1.20;;;15.80;99.90;;;;;;5035034;28;20063;-59
2022/06/09 00:48:44;;;;;;;4.93;0.98;;;15.80;99.90;;;;;;5035724;28;20115;-61
2022/06/09 00:51:10;;;;;;;6.93;1.00;;;15.70;99.90;;;;;;5036188;28;20032;-60
2022/06/09 00:53:38;;;;;;;6.05;0.82;;;15.70;99.90;;;;;;5035272;28;20022;-61
2022/06/09 00:56:05;;;;;;;6.15;1.20;;;15.70;99.90;;;;;;5034808;28;20035;-60
2022/06/09 00:58:36;;;;;;;3.03;1.00;;;15.70;99.90;;;;;;5034954;28;20029;-61
2022/06/09 01:01:05;;;;;;;4.85;0.68;;;15.60;99.90;;;;;;5035632;28;20029;-60
2022/06/09 01:03:43;;;;;;;3.45;1.00;;;15.60;99.90;;;;;;5035103;28;20031;-61
2022/06/09 01:06:13;;;;;;;2.42;1.08;;;15.50;99.90;;;;;;5036317;28;20018;-61
2022/06/09 01:08:45;;;;;;;3.77;1.27;;;15.50;99.90;;;;;;5036366;28;20080;-61
2022/06/09 01:11:11;;;;;;;1.77;0.90;;;15.50;99.90;;;;;;5034606;28;20311;-60
2022/06/09 01:13:37;;;;;;;5.75;1.60;;;15.50;99.90;;;;;;5034821;28;20056;-61
2022/06/09 01:16:10;;;;;;;6.55;1.35;;;15.40;99.90;;;;;;5035271;28;20458;-60
2022/06/09 01:19:10;;;;;;;1.27;1.00;;;15.40;99.90;;;;;;5034497;28;20032;-59
2022/06/09 01:22:04;;;;;;;2.47;0.95;;;15.50;99.90;;;;;;5035798;28;20103;-61
2022/06/09 01:24:55;;;;;;;2.25;1.15;;;15.50;99.90;;;;;;5035027;28;20021;-61
2022/06/09 01:27:35;;;;;;;1.30;0.90;;;15.50;99.90;;;;;;5034428;28;20559;-61
2022/06/09 01:30:11;;;;;;;4.32;0.80;;;15.50;99.90;;;;;;5034850;28;20033;-61
2022/06/09 01:32:43;;;;;;;3.92;0.73;;;15.50;99.90;;;;;;5034217;28;20051;-61
2022/06/09 01:35:23;;;;;;;1.45;1.25;;;15.50;99.90;;;;;;5034948;28;20120;-61
2022/06/09 01:37:54;;;;;;;3.15;0.90;;;15.50;99.90;;;;;;5035337;28;20028;-61
2022/06/09 01:40:20;;;;;;;3.95;1.23;;;15.40;99.90;;;;;;5035401;28;20032;-60
2022/06/09 01:42:49;;;;;;;4.35;1.13;;;15.40;99.90;;;;;;5034328;28;20033;-61
2022/06/09 01:45:21;;;;;;;7.78;1.60;;;15.50;99.90;;;;;;5035283;28;20025;-61
2022/06/09 01:48:04;;;;;;;2.13;1.25;;;15.50;99.90;;;;;;5035488;28;20036;-61
2022/06/09 01:50:47;;;;;;;4.85;1.98;;;15.50;99.90;;;;;;5035174;28;20045;-61
2022/06/09 01:53:44;;;;;;;7.95;1.27;;;15.50;99.90;;;;;;5034390;28;20021;-61
2022/06/09 01:56:15;;;;;;;4.13;1.20;;;15.50;99.90;;;;;;5033615;28;20112;-61
2022/06/09 01:58:49;;;;;;;4.93;1.30;;;15.60;99.90;;;;;;5033855;28;20026;-61
2022/06/09 02:01:17;;;;;;;3.15;1.00;;;15.60;99.90;;;;;;5033748;28;20029;-61
2022/06/09 02:03:47;;;;;;;2.33;1.20;;;15.70;99.90;;;;;;5033664;28;20028;-61
2022/06/09 02:06:14;;;;;;;3.45;1.27;;;15.60;99.90;;;;;;5033898;28;20021;-60
2022/06/09 02:08:40;;;;;;;2.67;1.02;;;15.70;99.90;;;;;;5034235;28;20025;-61
2022/06/09 02:11:12;;;;;;;6.18;1.20;;;15.80;99.90;;;;;;5033540;28;20021;-61
2022/06/09 02:13:43;;;;;;;4.90;1.85;;;15.80;99.90;;;;;;5033801;28;20029;-61
2022/06/09 02:16:13;;;;;;;1.08;0.88;;;15.70;99.90;;;;;;5034367;28;20048;-61
2022/06/09 02:18:42;;;;;;;6.55;1.15;;;15.70;99.90;;;;;;5035017;28;20026;-61
2022/06/09 02:21:23;;;;;;;8.98;1.63;;;15.60;99.90;;;;;;5034234;28;20054;-61
2022/06/09 02:23:49;;;;;;;6.97;1.10;;;15.50;99.90;;;;;;5033636;28;20026;-61
2022/06/09 02:26:16;;;;;;;1.48;1.20;;;15.40;99.90;;;;;;5033279;28;20029;-63
2022/06/09 02:28:42;;;;;;;7.05;1.40;;;15.30;99.90;;;;;;5033118;28;20398;-61
2022/06/09 02:31:09;;;;;;;5.03;1.60;;;15.30;99.90;;;;;;5033242;28;20034;-60
2022/06/09 02:33:35;;;;;;;4.40;1.20;;;15.20;99.90;;;;;;5033911;28;20083;-61
2022/06/09 02:36:00;;;;;;;2.95;1.00;;;15.10;99.90;;;;;;5034358;28;20023;-61
2022/06/09 02:38:26;;;;;;;9.15;1.15;;;15.00;99.90;;;;;;5034566;28;20025;-60
2022/06/09 02:40:54;;;;;;;10.30;2.15;;;15.00;99.90;;;;;;5034405;28;20030;-61
2022/06/09 02:43:21;;;;;;;6.50;1.38;;;14.90;99.90;;;;;;5034234;28;20060;-59
2022/06/09 02:45:47;;;;;;;7.07;1.45;;;14.90;99.90;;;;;;5032996;28;20030;-61
2022/06/09 02:48:13;;;;;;;5.45;1.40;;;14.90;99.90;;;;;;5032813;28;20095;-60
2022/06/09 02:50:39;;;;;;;3.67;1.42;;;14.80;99.90;;;;;;5034112;28;20479;-60
2022/06/09 02:53:06;;;;;;;4.47;1.40;;;14.80;99.90;;;;;;5032631;28;20025;-61
2022/06/09 02:55:32;;;;;;;9.35;1.80;;;14.80;99.90;;;;;;5033424;28;20032;-61
2022/06/09 02:57:58;;;;;;;13.80;1.77;;;14.90;99.90;;;;;;5032677;28;20102;-61
2022/06/09 03:00:24;;;;;;;6.57;1.60;;;14.90;99.90;;;;;;5032435;28;20029;-61
2022/06/09 03:02:56;;;;;;;7.35;1.40;;;14.90;99.90;;;;;;5032160;28;20021;-61
2022/06/09 03:05:22;;;;;;;10.98;2.53;;;14.90;99.90;;;;;;5032436;28;20029;-61
2022/06/09 03:07:48;;;;;;;7.40;1.30;;;14.90;99.90;;;;;;5033763;28;20037;-61
2022/06/09 03:10:14;;;;;;;5.90;1.58;;;15.00;99.90;;;;;;5032420;28;20030;-61
2022/06/09 03:12:40;;;;;;;7.45;1.73;;;15.10;99.90;;;;;;5033709;28;20380;-61
2022/06/09 03:15:08;;;;;;;4.95;1.63;;;15.10;99.90;;;;;;5033761;28;20030;-61
2022/06/09 03:17:35;;;;;;;2.42;1.45;;;15.20;99.90;;;;;;5033598;28;20041;-61
2022/06/09 03:20:02;;;;;;;10.20;1.63;;;15.20;99.90;;;;;;5033746;28;20022;-61
2022/06/09 03:22:30;;;;;;;6.63;1.50;;;15.10;99.90;;;;;;5033321;28;20029;-61
2022/06/09 03:24:55;;;;;;;5.47;1.38;;;15.10;99.90;;;;;;5032419;28;20025;-61
2022/06/09 03:27:21;;;;;;;5.05;1.38;;;15.10;99.90;;;;;;5033399;28;20022;-61
2022/06/09 03:29:46;;;;;;;6.57;1.95;;;15.10;99.90;;;;;;5033036;28;20028;-61
2022/06/09 03:32:12;;;;;;;7.18;1.77;;;15.10;99.90;;;;;;5032277;28;20079;-61
2022/06/09 03:34:38;;;;;;;8.52;2.35;;;15.10;99.90;;;;;;5033237;28;20025;-61
2022/06/09 03:37:03;;;;;;;10.68;2.47;;;15.10;99.90;;;;;;5031861;28;20116;-61
2022/06/09 03:39:29;;;;;;;4.68;1.92;;;15.10;99.90;;;;;;5031986;28;20021;-59
2022/06/09 03:41:55;;;;;;;11.43;2.35;;;15.20;99.90;;;;;;5033306;28;20033;-61
2022/06/09 03:44:20;;;;;;;4.93;1.80;;;15.20;99.90;;;;;;5033228;28;20057;-61
2022/06/09 03:46:46;;;;;;;8.25;1.88;;;15.20;99.90;;;;;;5033170;28;20087;-60
2022/06/09 03:49:12;;;;;;;4.22;1.55;;;15.30;99.90;;;;;;5032059;28;20029;-61
2022/06/09 03:51:37;;;;;;;9.88;2.17;;;15.30;99.90;;;;;;5031728;28;20120;-61
2022/06/09 03:54:03;;;;;;;5.93;1.75;;;15.30;99.90;;;;;;5031700;28;20026;-61
2022/06/09 03:56:29;;;;;;;2.63;1.80;;;15.30;99.90;;;;;;5032961;28;20029;-61
2022/06/09 03:58:54;;;;;;;7.43;2.15;;;15.40;99.90;;;;;;5031723;28;20029;-60
2022/06/09 04:01:20;;;;;;;5.43;1.70;;;15.40;99.90;;;;;;5033233;28;20101;-61
2022/06/09 04:03:47;;;;;;;5.95;1.70;;;15.40;99.90;;;;;;5031707;28;20018;-61
2022/06/09 04:06:22;;;;;;;8.68;1.98;;;15.40;99.90;;;;;;5031920;28;20032;-61
2022/06/09 04:08:48;;;;;;;6.80;2.10;;;15.50;99.90;;;;;;5031622;28;20025;-61
2022/06/09 04:11:15;;;;;;;7.05;2.38;;;15.50;99.90;;;;;;5032481;28;20022;-62
2022/06/09 04:13:41;;;;;;;5.43;1.80;;;15.50;99.90;;;;;;5033244;28;20022;-61
2022/06/09 04:16:29;;;;;;;6.93;1.65;;;15.60;99.90;;;;;;5035905;28;20029;-61
2022/06/09 04:18:59;;;;;;;10.10;1.90;;;15.60;99.90;;;;;;5036125;28;20021;-61
2022/06/09 04:21:26;;;;;;;5.85;1.45;;;15.70;99.90;;;;;;5037089;28;20520;-61
2022/06/09 04:23:51;;;;;;;8.30;2.55;;;15.80;99.90;;;;;;5035785;28;20365;-61
2022/06/09 04:26:21;;;;;;;6.25;2.00;;;15.80;99.90;;;;;;5036747;28;20084;-61
2022/06/09 04:28:46;;;;;;;8.20;1.67;;;15.90;99.90;;;;;;5036307;28;20033;-61
2022/06/09 04:31:13;;;;;;;6.45;1.95;;;15.90;99.90;;;;;;5035369;28;20116;-61
2022/06/09 04:33:39;;;;;;;3.75;1.70;;;15.90;99.90;;;;;;5037159;28;20033;-61
2022/06/09 04:36:06;;;;;;;7.53;2.80;;;15.80;99.90;;;;;;5035518;28;20055;-61
2022/06/09 04:38:32;;;;;;;6.97;1.88;;;15.80;99.90;;;;;;5035600;28;20025;-61
2022/06/09 04:40:58;;;;;;;5.05;1.40;;;15.90;99.90;;;;;;5035567;28;20017;-61
2022/06/09 04:43:23;;;;;;;6.53;1.95;;;16.10;99.90;;;;;;5035534;28;20032;-61
2022/06/09 04:45:49;;;;;;;6.15;1.85;;;16.50;99.90;;;;;;5035402;28;20104;-61
2022/06/09 04:48:15;;;;;;;9.45;1.83;;;17.00;99.90;;;;;;5034154;28;20033;-61
2022/06/09 04:50:44;;;;;;;6.85;2.08;;;17.40;99.90;;;;;;5034411;28;20025;-62
2022/06/09 04:53:10;;;;;;;4.30;1.25;;;17.80;99.90;;;;;;5034120;28;20078;-60
2022/06/09 04:55:37;;;;;;;2.58;1.20;;;18.20;99.90;;;;;;5034210;28;20029;-61
2022/06/09 04:58:03;;;;;;;9.77;1.40;;;18.50;99.90;;;;;;5035146;28;20040;-61
2022/06/09 05:00:31;;;;;;;5.50;1.50;;;18.90;99.90;;;;;;5034256;28;20022;-61
2022/06/09 05:02:59;;;;;;;5.07;1.58;;;19.10;99.90;;;;;;5033855;28;20026;-62
2022/06/09 05:05:29;;;;;;;5.47;1.92;;;19.50;99.90;;;;;;5034067;28;20028;-64
2022/06/09 05:07:55;;;;;;;9.15;1.75;;;19.90;99.90;;;;;;5034060;28;20029;-62
2022/06/09 05:10:20;;;;;;;5.32;1.30;;;20.30;99.90;;;;;;5034142;28;20060;-61
2022/06/09 05:12:46;;;;;;;4.22;1.60;;;20.60;99.90;;;;;;5034130;28;20064;-61
2022/06/09 05:15:14;;;;;;;3.22;1.17;;;20.70;99.90;;;;;;5034815;28;20044;-61
2022/06/09 05:17:40;;;;;;;5.93;1.77;;;20.60;99.90;;;;;;5033751;28;20021;-61
2022/06/09 05:20:06;;;;;;;4.05;1.65;;;20.30;99.90;;;;;;5033681;28;20112;-62
2022/06/09 05:22:32;;;;;;;4.82;1.38;;;20.40;99.90;;;;;;5035204;28;20116;-53
2022/06/09 05:24:59;;;;;;;6.90;1.73;;;20.30;99.90;;;;;;5034359;28;20049;-52
2022/06/09 05:27:25;;;;;;;3.97;1.60;;;20.30;99.90;;;;;;5034842;28;20048;-56
2022/06/09 05:29:51;;;;;;;3.38;1.52;;;20.30;99.90;;;;;;5035050;28;20022;-56
2022/06/09 05:32:17;;;;;;;7.78;1.90;;;20.40;99.90;;;;;;5034270;28;20051;-49
2022/06/09 05:34:43;;;;;;;5.80;1.90;;;20.40;99.90;;;;;;5034762;28;20123;-50
2022/06/09 05:37:08;;;;;;;6.45;1.83;;;20.50;99.90;;;;;;5033691;28;20049;-51
2022/06/09 05:45:06;;;;;;;8.02;1.50;;;21.20;99.90;;;;;;5036210;28;20117;-50
2022/06/09 05:47:35;;;;;;;6.70;1.50;;;21.20;99.90;;;;;;5035232;28;20028;-51
2022/06/09 05:50:01;;;;;;;6.40;1.50;;;21.10;99.90;;;;;;5035716;28;20025;-50
2022/06/09 05:52:28;;;;;;;4.25;1.50;;;20.90;99.90;;;;;;5035778;28;20036;-49
2022/06/09 05:54:55;;;;;;;6.60;1.33;;;20.70;99.90;;;;;;5035378;28;20032;-55
2022/06/09 05:57:22;;;;;;;4.07;1.27;;;20.50;99.90;;;;;;5035719;28;20075;-54
2022/06/09 05:59:48;;;;;;;3.47;1.25;;;20.40;99.90;;;;;;5035320;28;20028;-55
2022/06/09 06:02:15;;;;;;;2.65;1.20;;;20.10;99.90;;;;;;5035208;28;20064;-53
2022/06/09 06:04:41;;;;;;;5.85;1.33;;;20.00;99.90;;;;;;5034334;28;20036;-52
2022/06/09 06:07:07;;;;;;;4.22;1.55;;;19.90;99.90;;;;;;5035265;28;20022;-55
2022/06/09 06:09:33;;;;;;;9.52;1.48;;;19.90;99.90;;;;;;5034040;28;20032;-54
2022/06/09 06:11:59;;;;;;;5.38;1.35;;;19.80;99.90;;;;;;5035170;28;20032;-57
2022/06/09 06:14:26;;;;;;;8.82;1.52;;;19.80;99.90;;;;;;5033823;28;20022;-54
2022/06/09 06:16:53;;;;;;;8.80;1.83;;;20.10;99.90;;;;;;5034572;28;20025;-53
2022/06/09 06:19:19;;;;;;;6.13;1.60;;;20.50;99.90;;;;;;5033652;28;20021;-51
2022/06/09 06:21:47;;;;;;;3.85;1.20;;;21.10;99.90;;;;;;5033816;28;20137;-55
2022/06/09 06:24:14;;;;;;;3.70;0.93;;;21.90;99.90;;;;;;5034009;28;20091;-49
2022/06/09 06:26:40;;;;;;;3.05;1.00;;;22.80;99.90;;;;;;5035097;28;20079;-54
2022/06/09 06:29:10;;;;;;;3.08;1.02;;;23.80;99.90;;;;;;5033903;28;20025;-55
2022/06/09 06:31:36;;;;;;;2.28;1.20;;;24.80;99.90;;;;;;5034642;28;20022;-54
2022/06/09 06:34:01;;;;;;;5.97;1.50;;;25.30;99.90;;;;;;5034668;28;20095;-50
2022/06/09 06:36:29;;;;;;;4.18;1.70;;;25.90;99.90;;;;;;5032641;28;20424;-53
2022/06/09 06:38:55;;;;;;;5.05;1.77;;;26.40;99.90;;;;;;5033656;28;20025;-52
2022/06/09 06:41:21;;;;;;;5.38;1.70;;;27.10;99.90;;;;;;5034486;28;20116;-55
2022/06/09 06:43:48;;;;;;;8.15;1.85;;;27.70;99.90;;;;;;5034466;28;20092;-56
2022/06/09 06:46:15;;;;;;;5.78;1.48;;;28.40;99.90;;;;;;5034394;28;20029;-54
2022/06/09 06:48:41;;;;;;;3.88;1.48;;;29.10;99.90;;;;;;5034803;28;20056;-56
2022/06/09 06:51:07;;;;;;;2.90;1.20;;;29.40;99.90;;;;;;5033488;28;20065;-50
2022/06/09 06:53:34;;;;;;;3.33;1.40;;;29.40;99.90;;;;;;5033103;28;20056;-52
2022/06/09 06:56:00;;;;;;;3.97;1.00;;;29.10;99.90;;;;;;5032730;28;20040;-51
2022/06/09 06:58:26;;;;;;;4.50;1.67;;;29.10;99.90;;;;;;5034168;28;20017;-50
2022/06/09 07:00:52;;;;;;;4.25;1.40;;;29.50;99.90;;;;;;5033024;28;20112;-53
2022/06/09 07:03:18;;;;;;;5.13;2.55;;;29.70;99.90;;;;;;5034303;28;20029;-50
2022/06/09 07:05:55;;;;;;;4.82;1.95;;;29.70;99.90;;;;;;5034467;28;20030;-54
2022/06/09 07:08:23;;;;;;;4.18;1.40;;;29.80;99.90;;;;;;5034659;28;20376;-55
2022/06/09 07:10:49;;;;;;;4.72;0.98;;;30.10;98.50;;;;;;5033984;28;20105;-51
2022/06/09 07:13:14;;;;;;;5.05;1.50;;;29.70;99.50;;;;;;5032698;28;20112;-52
2022/06/09 07:15:40;;;;;;;6.53;1.20;;;29.60;97.60;;;;;;5032885;28;20384;-54
2022/06/09 07:18:06;;;;;;;5.07;1.70;;;30.30;97.30;;;;;;5033886;28;20057;-53
2022/06/09 07:20:32;;;;;;;3.78;1.50;;;31.20;96.30;;;;;;5032703;28;20025;-54
2022/06/09 07:22:57;;;;;;;5.38;1.42;;;31.50;94.80;;;;;;5032421;28;20028;-57
2022/06/09 07:25:25;;;;;;;6.82;1.65;;;32.10;93.20;;;;;;5034061;28;20029;-52
2022/06/09 07:27:52;;;;;;;5.55;1.40;;;31.60;92.50;;;;;;5033736;28;20025;-53
2022/06/09 07:30:20;;;;;;;8.18;1.42;;;30.60;93.20;;;;;;5032476;28;20036;-53
2022/06/09 07:32:46;;;;;;;4.88;1.55;;;29.30;95.20;;;;;;5033205;28;20025;-51
2022/06/09 07:35:14;;;;;;;6.20;1.50;;;28.70;96.10;;;;;;5032319;28;20018;-51
2022/06/09 07:37:40;;;;;;;8.38;1.63;;;28.20;95.80;;;;;;5032269;28;20111;-53
2022/06/09 07:40:07;;;;;;;5.88;1.20;;;27.50;96.80;;;;;;5033475;28;20053;-55
2022/06/09 07:42:33;;;;;;;5.53;1.30;;;27.00;97.60;;;;;;5032508;28;20041;-51
2022/06/09 07:44:58;;;;;;;4.03;1.17;;;26.70;98.20;;;;;;5032263;28;20022;-52
2022/06/09 07:50:49;;;;;;;2.63;1.20;;;26.30;99.40;;;;;;5033770;28;20099;-50
2022/06/09 07:53:14;;;;;;;2.50;1.20;;;25.90;99.90;;;;;;5032049;28;20021;-49
2022/06/09 07:55:40;;;;;;;4.78;1.25;;;25.70;99.90;;;;;;5027347;28;20029;-54
2022/06/09 07:58:05;;;;;;;5.63;1.30;;;25.50;99.90;;;;;;5012218;28;20022;-51
2022/06/09 08:00:31;;;;;;;6.57;1.20;;;25.40;99.90;;;;;;5012284;28;20112;-50
2022/06/09 08:03:03;;;;;;;4.50;0.98;;;25.20;99.90;;;;;;5012474;28;20022;-50
2022/06/09 08:05:31;;;;;;;5.63;1.08;;;25.10;99.90;;;;;;5012570;28;20061;-49
2022/06/09 08:07:56;;;;;;;5.53;1.23;;;24.70;99.90;;;;;;5012064;28;20057;-50
2022/06/09 08:10:24;;;;;;;5.00;1.17;;;24.40;99.90;;;;;;5012459;28;20065;-47
2022/06/09 08:12:54;;;;;;;5.90;1.27;;;24.20;99.90;;;;;;5012121;28;20026;-47
2022/06/09 08:15:20;;;;;;;2.60;0.98;;;23.90;99.90;;;;;;5013165;28;20033;-49
2022/06/09 08:17:46;;;;;;;6.25;1.20;;;23.80;99.90;;;;;;5012222;28;20022;-48
2022/06/09 08:20:47;;;;;;;4.90;1.20;;;23.80;99.90;;;;;;5012042;28;20094;-55
2022/06/09 08:23:18;;;;;;;2.95;1.40;;;24.30;99.90;;;;;;5012342;28;20026;-48
2022/06/09 08:25:45;;;;;;;4.85;1.25;;;24.80;99.90;;;;;;5024057;28;20159;-47
2022/06/09 08:28:21;;;;;;;6.85;1.73;;;25.10;99.90;;;;;;5031745;28;20078;-49
2022/06/09 08:30:49;;;;;;;4.43;1.30;;;25.20;99.90;;;;;;5031913;28;20025;-49
2022/06/09 08:33:15;;;;;;;4.95;1.50;;;25.00;99.90;;;;;;5032833;28;20033;-46
2022/06/09 08:39:03;;;;;;;4.47;1.80;;;24.50;99.90;;;;;;5033169;28;20031;-50
2022/06/09 08:41:37;;;;;;;3.65;1.40;;;24.00;99.90;;;;;;5031532;28;20088;-48
2022/06/09 08:44:11;;;;;;;4.72;1.58;;;23.70;99.90;;;;;;5032627;28;20049;-47
2022/06/09 08:47:16;;;;;;;6.10;1.75;;;23.50;99.90;;;;;;5031554;28;20034;-50
2022/06/09 08:50:09;;;;;;;3.05;1.38;;;23.60;99.90;;;;;;5032822;28;20499;-52
2022/06/09 08:53:05;;;;;;;5.60;1.42;;;23.60;99.90;;;;;;5031453;28;20480;-53
2022/06/09 08:55:33;;;;;;;3.63;1.17;;;23.50;99.90;;;;;;5031222;28;20080;-51
2022/06/09 08:58:21;;;;;;;3.28;1.35;;;23.40;99.90;;;;;;5031435;28;20025;-50
2022/06/09 09:01:05;;;;;;;3.17;1.30;;;23.20;99.90;;;;;;5035892;28;20037;-51
2022/06/09 09:03:41;;;;;;;5.10;1.58;;;23.00;99.90;;;;;;5035345;28;20108;-48
2022/06/09 09:06:29;;;;;;;4.63;1.35;;;22.70;99.90;;;;;;5035310;28;20499;-50
2022/06/09 09:09:08;;;;;;;6.68;1.98;;;22.70;99.90;;;;;;5036201;28;20025;-51
2022/06/09 09:11:38;;;;;;;4.20;1.55;;;22.50;99.90;;;;;;5036297;28;20034;-52
2022/06/09 09:14:13;;;;;;;6.43;1.70;;;22.40;99.90;;;;;;5024941;28;20030;-50
2022/06/09 09:17:21;;;;;;;5.03;2.10;;;22.30;99.90;;;;;;5016330;28;20022;-49
2022/06/09 09:23:11;;;;;;;4.22;1.60;;;23.00;99.90;;;;;;5018673;28;20029;-49
2022/06/09 09:25:57;;;;;;;5.57;1.20;;;24.70;99.90;;;;;;5034895;28;20029;-50
2022/06/09 09:28:43;;;;;;;5.55;1.70;;;26.60;99.90;;;;;;5034979;28;20036;-55
2022/06/09 09:31:50;;;;;;;7.97;1.92;;;28.00;99.90;;;;;;5034635;28;20029;-50
2022/06/09 09:34:21;;;;;;;4.80;1.80;;;30.00;99.90;;;;;;5034386;28;20026;-48
2022/06/09 09:40:14;;;;;;;3.22;1.92;;;31.50;95.20;;;;;;5036019;28;20103;-52
2022/06/09 09:42:43;;;;;;;3.50;1.73;;;31.40;94.00;;;;;;5035575;28;20483;-53
2022/06/09 09:45:12;;;;;;;5.68;1.50;;;32.40;92.20;;;;;;5034320;28;20025;-54
2022/06/09 09:51:12;;;;;;;4.82;1.83;;;34.10;84.60;;;;;;5035427;28;20487;-49
2022/06/09 09:53:51;;;;;;;4.10;1.63;;;33.90;83.00;;;;;;5035669;28;20010;-55
2022/06/09 09:56:17;;;;;;;2.60;1.85;;;34.20;82.10;;;;;;5035203;28;20100;-51
2022/06/09 09:58:48;;;;;;;4.63;2.25;;;33.30;81.00;;;;;;5034426;28;20112;-52
2022/06/09 10:01:14;;;;;;;7.15;2.30;;;31.70;85.70;;;;;;5034112;28;20049;-55
2022/06/09 10:09:59;;;;;;;6.75;3.25;;;27.50;92.20;;;;;;5029024;28;20439;-47
2022/06/09 10:12:34;;;;;;;8.27;2.92;;;26.60;92.90;;;;;;5033195;28;20032;-50
2022/06/09 10:15:06;;;;;;;6.03;3.08;;;26.10;94.00;;;;;;5026485;28;20030;-47
2022/06/09 10:17:54;;;;;;;5.53;2.35;;;25.80;94.30;;;;;;5015054;28;20421;-48
2022/06/09 10:20:41;;;;;;;5.07;2.50;;;26.20;95.00;;;;;;5030745;28;20389;-48
2022/06/09 10:23:07;;;;;;;5.43;2.35;;;27.00;94.70;;;;;;5014897;28;20022;-52
2022/06/09 10:29:15;;;;;;;4.38;2.78;;;27.30;93.40;;;;;;5015248;28;20092;-47
2022/06/09 10:31:43;;;;;;;8.85;3.60;;;26.50;92.80;;;;;;5014035;28;20030;-46
2022/06/09 10:34:21;;;;;;;5.68;2.78;;;26.20;93.70;;;;;;5030021;28;20022;-50
2022/06/09 10:37:16;;;;;;;5.65;2.80;;;26.70;93.90;;;;;;5014650;28;20109;-49
2022/06/09 10:40:03;;;;;;;6.82;2.45;;;27.10;93.60;;;;;;5014002;28;20121;-52
2022/06/09 10:42:39;;;;;;;8.55;2.55;;;27.40;93.50;;;;;;5013478;28;20124;-59
2022/06/09 10:45:23;;;;;;;5.80;2.97;;;27.50;93.00;;;;;;5014659;28;20080;-58
2022/06/09 10:56:54;;;;;;;4.93;2.47;;;27.40;93.00;;;;;;5014423;28;20029;-61
2022/06/09 10:59:33;;;;;;;6.82;2.22;;;27.30;93.50;;;;;;5049334;28;20022;-59
2022/06/09 11:02:00;;;;;;;5.82;2.30;;;27.30;93.70;;;;;;5032924;28;20053;-61
2022/06/09 11:04:31;;;;;;;4.13;2.45;;;27.30;93.60;;;;;;5032896;28;20028;-59
2022/06/09 11:07:10;;;;;;;8.50;2.72;;;26.80;93.10;;;;;;5033924;28;20022;-59
2022/06/09 11:09:44;;;;;;;6.03;2.58;;;26.70;93.20;;;;;;5034084;28;20025;-61
2022/06/09 11:12:19;;;;;;;4.03;2.20;;;26.70;93.90;;;;;;5034158;28;20060;-61
2022/06/09 11:15:03;;;;;;;11.98;3.42;;;26.50;93.30;;;;;;5032619;28;20032;-61
2022/06/09 11:17:58;;;;;;;5.70;2.78;;;26.10;94.20;;;;;;5032909;28;20128;-60
2022/06/09 11:20:48;;;;;;;5.00;2.20;;;25.90;94.20;;;;;;5024931;28;20041;-54
2022/06/09 11:23:23;;;;;;;16.35;3.28;;;25.80;94.70;;;;;;5033284;28;20028;-59
2022/06/09 11:26:01;;;;;;;7.10;2.20;;;25.70;95.30;;;;;;5033095;28;20037;-60
2022/06/09 11:28:26;;;;;;;4.88;2.50;;;25.70;94.90;;;;;;5032482;28;20091;-60
2022/06/09 11:31:11;;;;;;;6.30;2.53;;;25.70;95.00;;;;;;5032644;28;20029;-61
2022/06/09 11:33:52;;;;;;;6.53;2.30;;;25.60;94.70;;;;;;5038296;28;20060;-52
2022/06/09 11:36:40;;;;;;;4.90;2.60;;;25.50;94.80;;;;;;5042782;28;20053;-60
2022/06/09 11:39:27;;;;;;;5.10;2.38;;;25.50;95.30;;;;;;5032578;28;20018;-58
2022/06/09 11:42:29;;;;;;;9.15;2.75;;;25.40;95.40;;;;;;5033919;28;20089;-60
2022/06/09 11:45:21;;;;;;;8.60;2.65;;;25.30;95.50;;;;;;5033484;28;20021;-57
2022/06/09 11:47:47;;;;;;;7.32;2.38;;;25.30;95.40;;;;;;5031051;28;20026;-55
2022/06/09 11:50:18;;;;;;;6.97;2.58;;;25.40;95.90;;;;;;5032098;28;20029;-58
2022/06/09 11:52:50;;;;;;;7.28;2.70;;;25.50;95.80;;;;;;5032028;28;20022;-56
2022/06/09 11:58:35;;;;;;;7.65;2.83;;;25.80;95.50;;;;;;5013697;28;20080;-54
2022/06/09 12:01:22;;;;;;;3.55;2.03;;;25.90;95.50;;;;;;5012313;28;20022;-56
2022/06/09 12:04:24;;;;;;;9.13;2.00;;;26.10;95.10;;;;;;5013519;28;20046;-57
2022/06/09 12:07:05;;;;;;;3.97;2.45;;;26.20;94.40;;;;;;5012739;28;20022;-56
2022/06/09 12:10:20;;;;;;;2.00;1.80;;;26.30;94.20;;;;;;5013549;28;20030;-54
2022/06/09 12:13:04;;;;;;;4.72;1.77;;;26.20;93.90;;;;;;5013423;28;20030;-57
2022/06/09 12:15:45;;;;;;;6.22;2.22;;;26.20;93.50;;;;;;5012232;28;20400;-57
2022/06/09 12:18:15;;;;;;;5.18;2.55;;;25.90;94.90;;;;;;5019377;28;20075;-54
2022/06/09 12:20:47;;;;;;;3.75;2.10;;;25.80;95.90;;;;;;5031910;28;20022;-54
2022/06/09 12:23:51;;;;;;;4.57;2.38;;;25.70;94.90;;;;;;5032193;28;20060;-52
2022/06/09 12:26:19;;;;;;;8.25;2.10;;;25.70;94.50;;;;;;5032199;28;20036;-54
2022/06/09 12:28:53;;;;;;;4.28;2.60;;;25.70;94.90;;;;;;5032913;28;20115;-52
2022/06/09 12:31:20;;;;;;;5.35;2.15;;;25.60;95.10;;;;;;5032064;28;20021;-55
2022/06/09 12:34:12;;;;;;;5.47;2.13;;;25.50;94.90;;;;;;5031805;28;20033;-54
2022/06/09 12:36:48;;;;;;;4.03;2.15;;;25.50;95.20;;;;;;5035594;28;20048;-53
2022/06/09 12:39:59;;;;;;;7.28;2.35;;;25.40;94.50;;;;;;5021410;28;20066;-52
2022/06/09 12:42:32;;;;;;;9.57;2.42;;;25.40;95.20;;;;;;5016052;28;20034;-58
2022/06/09 12:45:07;;;;;;;11.52;2.45;;;25.50;95.90;;;;;;5016510;28;20026;-58
2022/06/09 12:47:33;;;;;;;5.65;2.28;;;25.50;96.40;;;;;;5015848;28;20045;-58
2022/06/09 12:50:04;;;;;;;7.72;2.35;;;25.40;96.60;;;;;;5015587;28;20022;-52
2022/06/09 12:52:39;;;;;;;7.88;2.72;;;25.30;99.60;;;;;;5016820;28;20022;-55
2022/06/09 12:55:29;;;;;;;5.88;2.67;;;25.10;99.90;;;;;;5016812;28;20025;-53
2022/06/09 12:58:10;;;;;;;5.75;3.00;;;24.90;99.90;;;;;;5015862;28;20476;-55
2022/06/09 13:00:38;;;;;;;3.67;2.22;;;24.70;99.90;;;;;;5015479;28;20018;-58
2022/06/09 13:03:31;;;;;;;10.77;2.75;;;24.50;99.00;;;;;;5015281;28;20034;-51
2022/06/09 13:06:26;;;;;;;4.57;1.88;;;24.20;99.10;;;;;;5016565;28;20038;-58
2022/06/09 13:09:00;;;;;;;3.30;1.88;;;23.90;98.30;;;;;;5015400;28;20026;-55
2022/06/09 13:14:19;;;;;;;2.55;1.60;;;23.70;97.30;;;;;;5016802;28;20119;-57
2022/06/09 13:16:47;;;;;;;6.28;2.15;;;23.50;97.30;;;;;;5016044;28;20029;-52
2022/06/09 13:19:18;;;;;;;6.55;2.15;;;23.40;98.70;;;;;;5016415;28;20101;-54
2022/06/09 13:21:46;;;;;;;4.68;2.30;;;23.10;99.80;;;;;;5016987;28;20137;-58
2022/06/09 13:24:19;;;;;;;5.65;2.35;;;22.90;99.90;;;;;;5015075;28;20026;-58
2022/06/09 13:26:46;;;;;;;4.28;2.50;;;22.60;99.90;;;;;;5015019;28;20026;-55
2022/06/09 13:29:28;;;;;;;2.92;2.35;;;22.20;99.90;;;;;;5015169;28;20107;-57
2022/06/09 13:32:22;;;;;;;10.35;2.88;;;22.20;99.90;;;;;;5031269;28;20030;-46
2022/06/09 13:34:50;;;;;;;5.45;3.15;;;22.00;99.90;;;;;;5016220;28;20030;-48
2022/06/09 13:37:20;;;;;;;6.25;3.10;;;21.80;99.90;;;;;;5021002;28;20022;-45
2022/06/09 13:39:45;;;;;;;4.60;2.30;;;21.50;99.90;;;;;;5014857;28;20018;-45
2022/06/09 13:42:17;;;;;;;4.72;2.22;;;21.40;99.90;;;;;;5015701;28;20060;-45
2022/06/09 13:45:20;;;;;;;3.05;2.20;;;21.10;99.90;;;;;;5015458;28;20042;-48
2022/06/09 13:48:07;;;;;;;3.10;2.42;;;20.80;99.90;;;;;;5029972;28;20076;-52
2022/06/09 13:50:36;;;;;;;6.88;3.97;;;20.90;99.90;;;;;;5016285;28;20032;-49
2022/06/09 13:53:29;;;;;;;3.38;1.85;;;20.80;99.90;;;;;;5035310;28;20014;-57
2022/06/09 13:55:55;;;;;;;12.15;2.38;;;20.60;99.90;;;;;;5034398;28;20075;-55
2022/06/09 13:58:40;;;;;;;4.75;2.00;;;20.60;99.90;;;;;;5035327;28;20026;-56